sensor_id;sensor_type;location;lat;lon;timestamp;P1;durP1;ratioP1;P2;durP2;ratioP2
14550;SDS011;7362;50.956;4.184;2022-10-31T00:01:28;8.32;;;4.80;;
14550;SDS011;7362;50.956;4.184;2022-10-31T00:03:55;8.40;;;4.15;;
14550;SDS011;7362;50.956;4.184;2022-10-31T00:06:21;13.30;;;5.45;;
14550;SDS011;7362;50.956;4.184;2022-10-31T00:08:51;7.70;;;4.97;;
14550;SDS011;7362;50.956;4.184;2022-10-31T00:11:21;9.75;;;5.40;;
14550;SDS011;7362;50.956;4.184;2022-10-31T00:13:54;7.65;;;5.40;;
14550;SDS011;7362;50.956;4.184;2022-10-31T00:16:51;11.20;;;5.10;;
14550;SDS011;7362;50.956;4.184;2022-10-31T00:19:17;11.68;;;4.88;;
14550;SDS011;7362;50.956;4.184;2022-10-31T00:21:43;8.55;;;5.65;;
14550;SDS011;7362;50.956;4.184;2022-10-31T00:24:10;11.18;;;6.03;;
14550;SDS011;7362;50.956;4.184;2022-10-31T00:26:36;8.90;;;5.53;;
14550;SDS011;7362;50.956;4.184;2022-10-31T00:31:32;9.80;;;5.25;;
14550;SDS011;7362;50.956;4.184;2022-10-31T00:36:27;8.07;;;5.53;;
14550;SDS011;7362;50.956;4.184;2022-10-31T00:38:53;6.97;;;4.82;;
14550;SDS011;7362;50.956;4.184;2022-10-31T00:41:21;8.70;;;5.40;;
14550;SDS011;7362;50.956;4.184;2022-10-31T00:43:49;9.68;;;5.18;;
14550;SDS011;7362;50.956;4.184;2022-10-31T00:46:17;9.50;;;5.43;;
14550;SDS011;7362;50.956;4.184;2022-10-31T00:48:44;8.80;;;5.35;;
14550;SDS011;7362;50.956;4.184;2022-10-31T00:51:11;9.52;;;5.35;;
14550;SDS011;7362;50.956;4.184;2022-10-31T00:53:37;8.05;;;5.78;;
14550;SDS011;7362;50.956;4.184;2022-10-31T00:56:03;6.13;;;4.72;;
14550;SDS011;7362;50.956;4.184;2022-10-31T00:58:29;8.20;;;4.75;;
14550;SDS011;7362;50.956;4.184;2022-10-31T01:00:54;8.82;;;5.32;;
14550;SDS011;7362;50.956;4.184;2022-10-31T01:03:23;8.43;;;5.10;;
14550;SDS011;7362;50.956;4.184;2022-10-31T01:08:26;8.10;;;5.05;;
14550;SDS011;7362;50.956;4.184;2022-10-31T01:11:04;16.17;;;5.65;;
14550;SDS011;7362;50.956;4.184;2022-10-31T01:13:35;7.43;;;4.78;;
14550;SDS011;7362;50.956;4.184;2022-10-31T01:16:02;7.75;;;4.57;;
14550;SDS011;7362;50.956;4.184;2022-10-31T01:18:28;7.45;;;5.22;;
14550;SDS011;7362;50.956;4.184;2022-10-31T01:21:02;12.57;;;5.90;;
14550;SDS011;7362;50.956;4.184;2022-10-31T01:23:38;7.80;;;5.07;;
14550;SDS011;7362;50.956;4.184;2022-10-31T01:26:09;8.73;;;5.30;;
14550;SDS011;7362;50.956;4.184;2022-10-31T01:31:20;10.82;;;4.85;;
14550;SDS011;7362;50.956;4.184;2022-10-31T01:33:47;7.97;;;5.30;;
14550;SDS011;7362;50.956;4.184;2022-10-31T01:36:20;7.82;;;4.63;;
14550;SDS011;7362;50.956;4.184;2022-10-31T01:38:47;7.00;;;3.75;;
14550;SDS011;7362;50.956;4.184;2022-10-31T01:41:15;7.97;;;4.28;;
14550;SDS011;7362;50.956;4.184;2022-10-31T01:43:52;6.88;;;4.10;;
14550;SDS011;7362;50.956;4.184;2022-10-31T01:46:33;8.88;;;4.25;;
14550;SDS011;7362;50.956;4.184;2022-10-31T01:49:02;8.15;;;4.55;;
14550;SDS011;7362;50.956;4.184;2022-10-31T01:51:34;7.40;;;4.05;;
14550;SDS011;7362;50.956;4.184;2022-10-31T01:54:07;6.28;;;4.20;;
14550;SDS011;7362;50.956;4.184;2022-10-31T01:56:38;8.38;;;4.22;;
14550;SDS011;7362;50.956;4.184;2022-10-31T02:01:36;6.05;;;4.35;;
14550;SDS011;7362;50.956;4.184;2022-10-31T02:04:04;6.18;;;4.22;;
14550;SDS011;7362;50.956;4.184;2022-10-31T02:06:42;7.07;;;4.43;;
14550;SDS011;7362;50.956;4.184;2022-10-31T02:09:14;8.23;;;4.18;;
14550;SDS011;7362;50.956;4.184;2022-10-31T02:11:41;7.65;;;4.00;;
14550;SDS011;7362;50.956;4.184;2022-10-31T02:16:39;6.45;;;4.55;;
14550;SDS011;7362;50.956;4.184;2022-10-31T02:19:04;9.75;;;4.50;;
14550;SDS011;7362;50.956;4.184;2022-10-31T02:27:07;7.15;;;4.28;;
14550;SDS011;7362;50.956;4.184;2022-10-31T02:40:21;6.63;;;4.47;;
14550;SDS011;7362;50.956;4.184;2022-10-31T02:45:26;11.80;;;4.68;;
14550;SDS011;7362;50.956;4.184;2022-10-31T02:47:58;8.50;;;4.32;;
14550;SDS011;7362;50.956;4.184;2022-10-31T02:50:34;6.60;;;4.05;;
14550;SDS011;7362;50.956;4.184;2022-10-31T02:53:02;8.63;;;4.60;;
14550;SDS011;7362;50.956;4.184;2022-10-31T02:57:59;5.95;;;4.10;;
14550;SDS011;7362;50.956;4.184;2022-10-31T03:00:31;9.68;;;4.60;;
14550;SDS011;7362;50.956;4.184;2022-10-31T03:03:19;9.25;;;4.68;;
14550;SDS011;7362;50.956;4.184;2022-10-31T03:05:58;7.63;;;4.68;;
14550;SDS011;7362;50.956;4.184;2022-10-31T03:11:19;10.10;;;5.00;;
14550;SDS011;7362;50.956;4.184;2022-10-31T03:14:00;7.88;;;5.43;;
14550;SDS011;7362;50.956;4.184;2022-10-31T03:16:49;7.20;;;5.13;;
14550;SDS011;7362;50.956;4.184;2022-10-31T03:19:23;7.78;;;5.20;;
14550;SDS011;7362;50.956;4.184;2022-10-31T03:22:00;10.65;;;5.30;;
14550;SDS011;7362;50.956;4.184;2022-10-31T03:24:37;6.35;;;4.40;;
14550;SDS011;7362;50.956;4.184;2022-10-31T03:27:05;7.47;;;4.80;;
14550;SDS011;7362;50.956;4.184;2022-10-31T03:29:36;12.18;;;5.20;;
14550;SDS011;7362;50.956;4.184;2022-10-31T03:32:15;8.35;;;4.90;;
14550;SDS011;7362;50.956;4.184;2022-10-31T03:34:45;6.22;;;4.07;;
14550;SDS011;7362;50.956;4.184;2022-10-31T03:37:13;9.80;;;5.03;;
14550;SDS011;7362;50.956;4.184;2022-10-31T03:39:43;9.25;;;4.57;;
14550;SDS011;7362;50.956;4.184;2022-10-31T03:42:14;8.13;;;4.82;;
14550;SDS011;7362;50.956;4.184;2022-10-31T03:44:42;6.82;;;4.65;;
14550;SDS011;7362;50.956;4.184;2022-10-31T03:47:16;8.48;;;5.10;;
14550;SDS011;7362;50.956;4.184;2022-10-31T03:49:42;7.43;;;4.57;;
14550;SDS011;7362;50.956;4.184;2022-10-31T03:52:18;11.30;;;4.75;;
14550;SDS011;7362;50.956;4.184;2022-10-31T03:55:03;9.43;;;5.18;;
14550;SDS011;7362;50.956;4.184;2022-10-31T03:57:45;7.90;;;4.70;;
14550;SDS011;7362;50.956;4.184;2022-10-31T04:02:49;11.02;;;5.28;;
14550;SDS011;7362;50.956;4.184;2022-10-31T04:05:26;9.40;;;5.28;;
14550;SDS011;7362;50.956;4.184;2022-10-31T04:07:54;8.52;;;5.85;;
14550;SDS011;7362;50.956;4.184;2022-10-31T04:10:21;8.32;;;5.28;;
14550;SDS011;7362;50.956;4.184;2022-10-31T04:12:50;7.68;;;5.55;;
14550;SDS011;7362;50.956;4.184;2022-10-31T04:15:21;8.85;;;4.97;;
14550;SDS011;7362;50.956;4.184;2022-10-31T04:17:51;8.57;;;5.50;;
14550;SDS011;7362;50.956;4.184;2022-10-31T04:20:42;7.57;;;5.85;;
14550;SDS011;7362;50.956;4.184;2022-10-31T04:23:25;12.02;;;6.13;;
14550;SDS011;7362;50.956;4.184;2022-10-31T04:25:52;9.15;;;6.22;;
14550;SDS011;7362;50.956;4.184;2022-10-31T04:28:18;8.43;;;6.47;;
14550;SDS011;7362;50.956;4.184;2022-10-31T04:30:45;9.32;;;5.85;;
14550;SDS011;7362;50.956;4.184;2022-10-31T04:33:11;11.43;;;5.75;;
14550;SDS011;7362;50.956;4.184;2022-10-31T04:35:36;9.45;;;6.13;;
14550;SDS011;7362;50.956;4.184;2022-10-31T04:38:02;8.35;;;6.07;;
14550;SDS011;7362;50.956;4.184;2022-10-31T04:40:27;10.88;;;6.15;;
14550;SDS011;7362;50.956;4.184;2022-10-31T04:42:54;7.38;;;5.32;;
14550;SDS011;7362;50.956;4.184;2022-10-31T04:45:20;9.15;;;6.00;;
14550;SDS011;7362;50.956;4.184;2022-10-31T04:47:45;9.23;;;5.90;;
14550;SDS011;7362;50.956;4.184;2022-10-31T04:50:12;8.65;;;5.95;;
14550;SDS011;7362;50.956;4.184;2022-10-31T04:52:44;15.25;;;6.50;;
14550;SDS011;7362;50.956;4.184;2022-10-31T04:55:11;8.60;;;5.60;;
14550;SDS011;7362;50.956;4.184;2022-10-31T04:57:44;9.15;;;5.88;;
14550;SDS011;7362;50.956;4.184;2022-10-31T05:00:11;9.57;;;6.72;;
14550;SDS011;7362;50.956;4.184;2022-10-31T05:02:46;12.98;;;7.82;;
14550;SDS011;7362;50.956;4.184;2022-10-31T05:05:14;8.82;;;6.18;;
14550;SDS011;7362;50.956;4.184;2022-10-31T05:07:42;10.15;;;7.07;;
14550;SDS011;7362;50.956;4.184;2022-10-31T05:10:11;11.23;;;6.88;;
14550;SDS011;7362;50.956;4.184;2022-10-31T05:12:45;10.02;;;6.95;;
14550;SDS011;7362;50.956;4.184;2022-10-31T05:15:13;10.93;;;6.68;;
14550;SDS011;7362;50.956;4.184;2022-10-31T05:17:40;12.35;;;7.20;;
14550;SDS011;7362;50.956;4.184;2022-10-31T05:20:05;13.40;;;7.20;;
14550;SDS011;7362;50.956;4.184;2022-10-31T05:22:31;14.43;;;7.55;;
14550;SDS011;7362;50.956;4.184;2022-10-31T05:24:58;14.23;;;7.68;;
14550;SDS011;7362;50.956;4.184;2022-10-31T05:27:24;13.80;;;6.70;;
14550;SDS011;7362;50.956;4.184;2022-10-31T05:29:51;12.13;;;7.68;;
14550;SDS011;7362;50.956;4.184;2022-10-31T05:32:17;12.07;;;7.82;;
14550;SDS011;7362;50.956;4.184;2022-10-31T05:34:42;13.35;;;8.30;;
14550;SDS011;7362;50.956;4.184;2022-10-31T05:37:08;13.68;;;8.55;;
14550;SDS011;7362;50.956;4.184;2022-10-31T05:39:34;17.63;;;9.13;;
14550;SDS011;7362;50.956;4.184;2022-10-31T05:42:00;14.70;;;8.10;;
14550;SDS011;7362;50.956;4.184;2022-10-31T05:44:28;15.38;;;8.77;;
14550;SDS011;7362;50.956;4.184;2022-10-31T05:47:00;13.98;;;8.07;;
14550;SDS011;7362;50.956;4.184;2022-10-31T05:49:26;14.02;;;8.70;;
14550;SDS011;7362;50.956;4.184;2022-10-31T05:51:53;12.85;;;8.18;;
14550;SDS011;7362;50.956;4.184;2022-10-31T05:54:20;11.05;;;7.53;;
14550;SDS011;7362;50.956;4.184;2022-10-31T05:56:45;10.57;;;7.75;;
14550;SDS011;7362;50.956;4.184;2022-10-31T05:59:11;12.63;;;7.57;;
14550;SDS011;7362;50.956;4.184;2022-10-31T06:01:37;15.60;;;8.82;;
14550;SDS011;7362;50.956;4.184;2022-10-31T06:04:02;13.63;;;8.35;;
14550;SDS011;7362;50.956;4.184;2022-10-31T06:06:28;10.30;;;8.30;;
14550;SDS011;7362;50.956;4.184;2022-10-31T06:08:57;11.82;;;8.30;;
14550;SDS011;7362;50.956;4.184;2022-10-31T06:11:24;10.48;;;8.02;;
14550;SDS011;7362;50.956;4.184;2022-10-31T06:13:54;11.50;;;8.10;;
14550;SDS011;7362;50.956;4.184;2022-10-31T06:18:49;11.43;;;7.82;;
14550;SDS011;7362;50.956;4.184;2022-10-31T06:21:23;13.30;;;8.15;;
14550;SDS011;7362;50.956;4.184;2022-10-31T06:23:49;12.18;;;7.93;;
14550;SDS011;7362;50.956;4.184;2022-10-31T06:26:16;12.50;;;7.75;;
14550;SDS011;7362;50.956;4.184;2022-10-31T06:28:43;13.90;;;7.38;;
14550;SDS011;7362;50.956;4.184;2022-10-31T06:31:17;8.98;;;7.45;;
14550;SDS011;7362;50.956;4.184;2022-10-31T06:33:44;10.60;;;7.68;;
14550;SDS011;7362;50.956;4.184;2022-10-31T06:36:09;13.98;;;8.15;;
14550;SDS011;7362;50.956;4.184;2022-10-31T06:38:36;12.95;;;8.35;;
14550;SDS011;7362;50.956;4.184;2022-10-31T06:41:05;14.30;;;7.65;;
14550;SDS011;7362;50.956;4.184;2022-10-31T06:43:32;13.15;;;8.38;;
14550;SDS011;7362;50.956;4.184;2022-10-31T06:46:01;12.13;;;8.60;;
14550;SDS011;7362;50.956;4.184;2022-10-31T06:48:29;14.30;;;8.27;;
14550;SDS011;7362;50.956;4.184;2022-10-31T06:51:01;11.10;;;8.00;;
14550;SDS011;7362;50.956;4.184;2022-10-31T06:53:30;12.32;;;8.27;;
14550;SDS011;7362;50.956;4.184;2022-10-31T06:55:56;13.65;;;8.02;;
14550;SDS011;7362;50.956;4.184;2022-10-31T06:58:22;14.30;;;8.27;;
14550;SDS011;7362;50.956;4.184;2022-10-31T07:00:51;11.65;;;9.23;;
14550;SDS011;7362;50.956;4.184;2022-10-31T07:03:17;10.30;;;7.38;;
14550;SDS011;7362;50.956;4.184;2022-10-31T07:05:49;12.63;;;8.68;;
14550;SDS011;7362;50.956;4.184;2022-10-31T07:08:15;14.57;;;7.72;;
14550;SDS011;7362;50.956;4.184;2022-10-31T07:10:41;10.65;;;7.95;;
14550;SDS011;7362;50.956;4.184;2022-10-31T07:13:13;12.98;;;8.10;;
14550;SDS011;7362;50.956;4.184;2022-10-31T07:15:41;11.40;;;8.35;;
14550;SDS011;7362;50.956;4.184;2022-10-31T07:18:28;12.90;;;8.05;;
14550;SDS011;7362;50.956;4.184;2022-10-31T07:20:59;12.10;;;7.78;;
14550;SDS011;7362;50.956;4.184;2022-10-31T07:23:28;16.10;;;11.23;;
14550;SDS011;7362;50.956;4.184;2022-10-31T07:26:02;11.18;;;8.27;;
14550;SDS011;7362;50.956;4.184;2022-10-31T07:28:56;10.65;;;7.97;;
14550;SDS011;7362;50.956;4.184;2022-10-31T07:31:21;11.20;;;8.45;;
14550;SDS011;7362;50.956;4.184;2022-10-31T07:39:14;14.00;;;8.02;;
14550;SDS011;7362;50.956;4.184;2022-10-31T07:41:40;14.38;;;9.52;;
14550;SDS011;7362;50.956;4.184;2022-10-31T07:44:22;12.80;;;8.93;;
14550;SDS011;7362;50.956;4.184;2022-10-31T07:46:52;10.98;;;8.00;;
14550;SDS011;7362;50.956;4.184;2022-10-31T07:49:18;14.73;;;8.27;;
14550;SDS011;7362;50.956;4.184;2022-10-31T07:51:48;11.55;;;9.32;;
14550;SDS011;7362;50.956;4.184;2022-10-31T07:56:54;12.88;;;8.35;;
14550;SDS011;7362;50.956;4.184;2022-10-31T07:59:24;8.88;;;7.35;;
14550;SDS011;7362;50.956;4.184;2022-10-31T08:04:40;10.32;;;7.18;;
14550;SDS011;7362;50.956;4.184;2022-10-31T08:07:11;9.50;;;6.13;;
14550;SDS011;7362;50.956;4.184;2022-10-31T08:09:45;31.80;;;23.08;;
14550;SDS011;7362;50.956;4.184;2022-10-31T08:12:14;9.07;;;7.15;;
14550;SDS011;7362;50.956;4.184;2022-10-31T08:25:07;10.75;;;7.32;;
14550;SDS011;7362;50.956;4.184;2022-10-31T08:28:24;12.75;;;7.22;;
14550;SDS011;7362;50.956;4.184;2022-10-31T08:30:56;11.82;;;7.20;;
14550;SDS011;7362;50.956;4.184;2022-10-31T08:33:24;10.13;;;6.35;;
14550;SDS011;7362;50.956;4.184;2022-10-31T08:36:11;9.27;;;7.15;;
14550;SDS011;7362;50.956;4.184;2022-10-31T08:38:36;9.57;;;7.22;;
14550;SDS011;7362;50.956;4.184;2022-10-31T08:43:37;12.82;;;7.70;;
14550;SDS011;7362;50.956;4.184;2022-10-31T08:46:03;12.82;;;6.97;;
14550;SDS011;7362;50.956;4.184;2022-10-31T08:48:29;8.25;;;6.40;;
14550;SDS011;7362;50.956;4.184;2022-10-31T08:50:58;11.23;;;7.05;;
14550;SDS011;7362;50.956;4.184;2022-10-31T08:53:25;13.00;;;7.50;;
14550;SDS011;7362;50.956;4.184;2022-10-31T08:55:53;12.60;;;7.95;;
14550;SDS011;7362;50.956;4.184;2022-10-31T08:58:20;10.05;;;6.75;;
14550;SDS011;7362;50.956;4.184;2022-10-31T09:00:47;8.18;;;6.45;;
14550;SDS011;7362;50.956;4.184;2022-10-31T09:03:16;8.90;;;6.70;;
14550;SDS011;7362;50.956;4.184;2022-10-31T09:06:00;8.70;;;6.03;;
14550;SDS011;7362;50.956;4.184;2022-10-31T09:08:31;10.68;;;6.38;;
14550;SDS011;7362;50.956;4.184;2022-10-31T09:10:58;9.30;;;6.65;;
14550;SDS011;7362;50.956;4.184;2022-10-31T09:13:25;7.18;;;5.55;;
14550;SDS011;7362;50.956;4.184;2022-10-31T09:15:51;7.57;;;5.10;;
14550;SDS011;7362;50.956;4.184;2022-10-31T09:18:20;8.80;;;5.22;;
14550;SDS011;7362;50.956;4.184;2022-10-31T09:21:03;9.02;;;5.78;;
14550;SDS011;7362;50.956;4.184;2022-10-31T09:23:29;8.68;;;5.78;;
14550;SDS011;7362;50.956;4.184;2022-10-31T09:25:58;7.25;;;5.10;;
14550;SDS011;7362;50.956;4.184;2022-10-31T09:28:27;6.15;;;5.18;;
14550;SDS011;7362;50.956;4.184;2022-10-31T09:30:57;7.07;;;4.78;;
14550;SDS011;7362;50.956;4.184;2022-10-31T09:36:38;10.82;;;5.85;;
14550;SDS011;7362;50.956;4.184;2022-10-31T09:39:04;9.35;;;5.55;;
14550;SDS011;7362;50.956;4.184;2022-10-31T09:41:45;7.18;;;5.13;;
14550;SDS011;7362;50.956;4.184;2022-10-31T09:50:48;11.75;;;5.47;;
14550;SDS011;7362;50.956;4.184;2022-10-31T09:53:27;9.18;;;5.20;;
14550;SDS011;7362;50.956;4.184;2022-10-31T09:56:18;10.82;;;5.68;;
14550;SDS011;7362;50.956;4.184;2022-10-31T09:58:58;9.73;;;5.57;;
14550;SDS011;7362;50.956;4.184;2022-10-31T10:03:59;7.82;;;5.45;;
14550;SDS011;7362;50.956;4.184;2022-10-31T10:06:36;9.20;;;5.28;;
14550;SDS011;7362;50.956;4.184;2022-10-31T10:09:07;7.22;;;5.45;;
14550;SDS011;7362;50.956;4.184;2022-10-31T10:17:26;6.78;;;4.75;;
14550;SDS011;7362;50.956;4.184;2022-10-31T10:20:25;9.45;;;5.50;;
14550;SDS011;7362;50.956;4.184;2022-10-31T10:26:19;11.13;;;5.65;;
14550;SDS011;7362;50.956;4.184;2022-10-31T10:29:27;9.25;;;5.05;;
14550;SDS011;7362;50.956;4.184;2022-10-31T10:32:20;12.00;;;6.25;;
14550;SDS011;7362;50.956;4.184;2022-10-31T10:34:51;10.55;;;5.70;;
14550;SDS011;7362;50.956;4.184;2022-10-31T10:37:24;9.27;;;6.10;;
14550;SDS011;7362;50.956;4.184;2022-10-31T10:40:01;12.02;;;5.47;;
14550;SDS011;7362;50.956;4.184;2022-10-31T10:42:50;11.13;;;6.72;;
14550;SDS011;7362;50.956;4.184;2022-10-31T10:45:48;10.30;;;5.88;;
14550;SDS011;7362;50.956;4.184;2022-10-31T10:48:43;8.98;;;6.00;;
14550;SDS011;7362;50.956;4.184;2022-10-31T11:00:18;12.07;;;8.05;;
14550;SDS011;7362;50.956;4.184;2022-10-31T11:02:54;11.98;;;8.82;;
14550;SDS011;7362;50.956;4.184;2022-10-31T11:14:34;11.32;;;6.95;;
14550;SDS011;7362;50.956;4.184;2022-10-31T11:19:48;11.20;;;6.53;;
14550;SDS011;7362;50.956;4.184;2022-10-31T11:28:19;11.48;;;6.82;;
14550;SDS011;7362;50.956;4.184;2022-10-31T11:30:54;12.43;;;7.25;;
14550;SDS011;7362;50.956;4.184;2022-10-31T11:33:37;10.45;;;6.55;;
14550;SDS011;7362;50.956;4.184;2022-10-31T11:36:24;9.88;;;6.65;;
14550;SDS011;7362;50.956;4.184;2022-10-31T11:38:59;9.70;;;6.97;;
14550;SDS011;7362;50.956;4.184;2022-10-31T11:41:34;13.77;;;7.25;;
14550;SDS011;7362;50.956;4.184;2022-10-31T11:44:20;12.32;;;6.88;;
14550;SDS011;7362;50.956;4.184;2022-10-31T11:47:03;10.57;;;6.40;;
14550;SDS011;7362;50.956;4.184;2022-10-31T11:54:58;11.93;;;6.45;;
14550;SDS011;7362;50.956;4.184;2022-10-31T12:00:37;10.02;;;6.50;;
14550;SDS011;7362;50.956;4.184;2022-10-31T12:03:09;13.07;;;6.50;;
14550;SDS011;7362;50.956;4.184;2022-10-31T12:05:44;12.52;;;6.80;;
14550;SDS011;7362;50.956;4.184;2022-10-31T12:08:12;11.40;;;6.70;;
14550;SDS011;7362;50.956;4.184;2022-10-31T12:10:46;12.55;;;6.30;;
14550;SDS011;7362;50.956;4.184;2022-10-31T12:34:58;10.45;;;6.30;;
14550;SDS011;7362;50.956;4.184;2022-10-31T12:56:28;12.63;;;5.50;;
14550;SDS011;7362;50.956;4.184;2022-10-31T13:02:32;12.40;;;5.93;;
14550;SDS011;7362;50.956;4.184;2022-10-31T13:11:05;10.32;;;5.57;;
14550;SDS011;7362;50.956;4.184;2022-10-31T13:13:41;9.40;;;5.85;;
14550;SDS011;7362;50.956;4.184;2022-10-31T13:16:35;13.88;;;5.82;;
14550;SDS011;7362;50.956;4.184;2022-10-31T13:19:16;11.77;;;5.80;;
14550;SDS011;7362;50.956;4.184;2022-10-31T13:24:59;9.43;;;5.10;;
14550;SDS011;7362;50.956;4.184;2022-10-31T13:27:33;11.50;;;5.85;;
14550;SDS011;7362;50.956;4.184;2022-10-31T13:30:19;11.13;;;5.15;;
14550;SDS011;7362;50.956;4.184;2022-10-31T13:32:59;8.63;;;5.35;;
14550;SDS011;7362;50.956;4.184;2022-10-31T13:39:02;11.85;;;4.82;;
14550;SDS011;7362;50.956;4.184;2022-10-31T13:44:36;11.20;;;6.03;;
14550;SDS011;7362;50.956;4.184;2022-10-31T13:50:02;11.75;;;5.43;;
14550;SDS011;7362;50.956;4.184;2022-10-31T13:52:51;9.85;;;5.50;;
14550;SDS011;7362;50.956;4.184;2022-10-31T13:55:36;10.40;;;5.00;;
14550;SDS011;7362;50.956;4.184;2022-10-31T14:03:43;8.25;;;5.05;;
14550;SDS011;7362;50.956;4.184;2022-10-31T14:06:14;7.50;;;4.70;;
14550;SDS011;7362;50.956;4.184;2022-10-31T14:11:34;12.63;;;5.20;;
14550;SDS011;7362;50.956;4.184;2022-10-31T14:14:08;9.43;;;5.35;;
14550;SDS011;7362;50.956;4.184;2022-10-31T14:16:36;8.63;;;4.45;;
14550;SDS011;7362;50.956;4.184;2022-10-31T14:19:20;8.20;;;4.43;;
14550;SDS011;7362;50.956;4.184;2022-10-31T14:21:47;10.30;;;5.53;;
14550;SDS011;7362;50.956;4.184;2022-10-31T14:27:33;7.88;;;4.03;;
14550;SDS011;7362;50.956;4.184;2022-10-31T14:30:36;10.80;;;4.32;;
14550;SDS011;7362;50.956;4.184;2022-10-31T14:33:00;9.23;;;3.75;;
14550;SDS011;7362;50.956;4.184;2022-10-31T14:38:29;6.70;;;3.97;;
14550;SDS011;7362;50.956;4.184;2022-10-31T14:50:07;10.13;;;4.50;;
14550;SDS011;7362;50.956;4.184;2022-10-31T14:52:55;8.60;;;4.05;;
14550;SDS011;7362;50.956;4.184;2022-10-31T14:55:28;8.60;;;4.13;;
14550;SDS011;7362;50.956;4.184;2022-10-31T14:58:01;7.75;;;3.85;;
14550;SDS011;7362;50.956;4.184;2022-10-31T15:00:35;8.73;;;4.20;;
14550;SDS011;7362;50.956;4.184;2022-10-31T15:03:18;9.68;;;4.28;;
14550;SDS011;7362;50.956;4.184;2022-10-31T15:05:50;10.70;;;4.40;;
14550;SDS011;7362;50.956;4.184;2022-10-31T15:11:18;9.02;;;4.50;;
14550;SDS011;7362;50.956;4.184;2022-10-31T15:14:05;10.50;;;5.15;;
14550;SDS011;7362;50.956;4.184;2022-10-31T15:16:52;9.43;;;4.95;;
14550;SDS011;7362;50.956;4.184;2022-10-31T15:21:55;11.23;;;5.13;;
14550;SDS011;7362;50.956;4.184;2022-10-31T15:24:34;14.10;;;4.90;;
14550;SDS011;7362;50.956;4.184;2022-10-31T15:27:02;8.90;;;5.32;;
14550;SDS011;7362;50.956;4.184;2022-10-31T15:29:29;9.10;;;5.65;;
14550;SDS011;7362;50.956;4.184;2022-10-31T15:31:56;12.15;;;5.18;;
14550;SDS011;7362;50.956;4.184;2022-10-31T15:36:53;9.05;;;5.57;;
14550;SDS011;7362;50.956;4.184;2022-10-31T15:39:25;9.88;;;5.70;;
14550;SDS011;7362;50.956;4.184;2022-10-31T15:41:54;15.07;;;6.28;;
14550;SDS011;7362;50.956;4.184;2022-10-31T15:44:35;9.93;;;5.90;;
14550;SDS011;7362;50.956;4.184;2022-10-31T15:47:07;12.73;;;6.22;;
14550;SDS011;7362;50.956;4.184;2022-10-31T15:50:04;11.52;;;6.00;;
14550;SDS011;7362;50.956;4.184;2022-10-31T15:52:44;14.57;;;6.32;;
14550;SDS011;7362;50.956;4.184;2022-10-31T15:55:18;11.48;;;6.50;;
14550;SDS011;7362;50.956;4.184;2022-10-31T15:57:52;20.20;;;7.00;;
14550;SDS011;7362;50.956;4.184;2022-10-31T16:01:03;11.32;;;6.28;;
14550;SDS011;7362;50.956;4.184;2022-10-31T16:03:31;10.38;;;6.18;;
14550;SDS011;7362;50.956;4.184;2022-10-31T16:06:05;13.48;;;7.50;;
14550;SDS011;7362;50.956;4.184;2022-10-31T16:08:33;12.27;;;7.40;;
14550;SDS011;7362;50.956;4.184;2022-10-31T16:14:04;13.50;;;6.88;;
14550;SDS011;7362;50.956;4.184;2022-10-31T16:16:48;14.82;;;8.07;;
14550;SDS011;7362;50.956;4.184;2022-10-31T16:19:20;13.15;;;7.30;;
14550;SDS011;7362;50.956;4.184;2022-10-31T16:22:02;11.50;;;6.78;;
14550;SDS011;7362;50.956;4.184;2022-10-31T16:27:37;11.90;;;6.97;;
14550;SDS011;7362;50.956;4.184;2022-10-31T16:32:58;17.33;;;7.45;;
14550;SDS011;7362;50.956;4.184;2022-10-31T16:35:36;11.98;;;6.47;;
14550;SDS011;7362;50.956;4.184;2022-10-31T16:38:04;11.45;;;6.80;;
14550;SDS011;7362;50.956;4.184;2022-10-31T16:40:30;11.95;;;6.55;;
14550;SDS011;7362;50.956;4.184;2022-10-31T16:42:56;11.32;;;7.57;;
14550;SDS011;7362;50.956;4.184;2022-10-31T16:45:26;11.73;;;7.00;;
14550;SDS011;7362;50.956;4.184;2022-10-31T16:48:14;10.43;;;6.80;;
14550;SDS011;7362;50.956;4.184;2022-10-31T16:50:47;10.38;;;6.65;;
14550;SDS011;7362;50.956;4.184;2022-10-31T16:53:17;11.52;;;7.00;;
14550;SDS011;7362;50.956;4.184;2022-10-31T16:58:16;11.80;;;7.05;;
14550;SDS011;7362;50.956;4.184;2022-10-31T17:00:46;11.93;;;5.88;;
14550;SDS011;7362;50.956;4.184;2022-10-31T17:03:12;13.90;;;6.43;;
14550;SDS011;7362;50.956;4.184;2022-10-31T17:05:37;16.00;;;7.70;;
14550;SDS011;7362;50.956;4.184;2022-10-31T17:08:05;9.60;;;6.18;;
14550;SDS011;7362;50.956;4.184;2022-10-31T17:10:30;12.30;;;6.85;;
14550;SDS011;7362;50.956;4.184;2022-10-31T17:12:58;10.13;;;5.93;;
14550;SDS011;7362;50.956;4.184;2022-10-31T17:15:27;18.05;;;7.15;;
14550;SDS011;7362;50.956;4.184;2022-10-31T17:17:54;11.07;;;6.05;;
14550;SDS011;7362;50.956;4.184;2022-10-31T17:22:52;9.73;;;5.90;;
14550;SDS011;7362;50.956;4.184;2022-10-31T17:25:22;11.43;;;6.13;;
14550;SDS011;7362;50.956;4.184;2022-10-31T17:27:53;9.73;;;5.35;;
14550;SDS011;7362;50.956;4.184;2022-10-31T17:30:20;10.68;;;5.78;;
14550;SDS011;7362;50.956;4.184;2022-10-31T17:32:47;10.10;;;5.82;;
14550;SDS011;7362;50.956;4.184;2022-10-31T17:35:16;8.65;;;5.35;;
14550;SDS011;7362;50.956;4.184;2022-10-31T17:37:43;8.93;;;5.15;;
14550;SDS011;7362;50.956;4.184;2022-10-31T17:45:28;7.93;;;4.97;;
14550;SDS011;7362;50.956;4.184;2022-10-31T17:55:31;11.25;;;4.53;;
14550;SDS011;7362;50.956;4.184;2022-10-31T17:57:58;9.18;;;5.20;;
14550;SDS011;7362;50.956;4.184;2022-10-31T18:00:26;7.97;;;4.60;;
14550;SDS011;7362;50.956;4.184;2022-10-31T18:02:53;11.50;;;5.32;;
14550;SDS011;7362;50.956;4.184;2022-10-31T18:05:21;11.23;;;4.60;;
14550;SDS011;7362;50.956;4.184;2022-10-31T18:07:54;12.32;;;5.63;;
14550;SDS011;7362;50.956;4.184;2022-10-31T18:10:33;12.80;;;4.70;;
14550;SDS011;7362;50.956;4.184;2022-10-31T18:15:58;12.98;;;5.13;;
14550;SDS011;7362;50.956;4.184;2022-10-31T18:18:39;9.38;;;4.88;;
14550;SDS011;7362;50.956;4.184;2022-10-31T18:21:05;8.40;;;4.68;;
14550;SDS011;7362;50.956;4.184;2022-10-31T18:23:33;10.68;;;4.38;;
14550;SDS011;7362;50.956;4.184;2022-10-31T18:26:02;6.95;;;4.72;;
14550;SDS011;7362;50.956;4.184;2022-10-31T18:28:30;6.70;;;4.53;;
14550;SDS011;7362;50.956;4.184;2022-10-31T18:30:59;8.27;;;4.45;;
14550;SDS011;7362;50.956;4.184;2022-10-31T18:33:25;5.18;;;4.03;;
14550;SDS011;7362;50.956;4.184;2022-10-31T18:35:52;8.13;;;3.92;;
14550;SDS011;7362;50.956;4.184;2022-10-31T18:38:21;11.63;;;5.03;;
14550;SDS011;7362;50.956;4.184;2022-10-31T18:40:49;12.93;;;4.90;;
14550;SDS011;7362;50.956;4.184;2022-10-31T18:43:18;10.07;;;4.85;;
14550;SDS011;7362;50.956;4.184;2022-10-31T18:45:46;7.85;;;4.40;;
14550;SDS011;7362;50.956;4.184;2022-10-31T18:48:18;11.48;;;4.82;;
14550;SDS011;7362;50.956;4.184;2022-10-31T18:50:49;9.07;;;4.25;;
14550;SDS011;7362;50.956;4.184;2022-10-31T18:53:16;11.38;;;5.05;;
14550;SDS011;7362;50.956;4.184;2022-10-31T18:55:43;11.73;;;4.68;;
14550;SDS011;7362;50.956;4.184;2022-10-31T18:58:08;10.30;;;4.03;;
14550;SDS011;7362;50.956;4.184;2022-10-31T19:00:35;10.48;;;4.80;;
14550;SDS011;7362;50.956;4.184;2022-10-31T19:03:01;10.95;;;4.93;;
14550;SDS011;7362;50.956;4.184;2022-10-31T19:05:28;8.60;;;5.15;;
14550;SDS011;7362;50.956;4.184;2022-10-31T19:07:55;10.50;;;4.50;;
14550;SDS011;7362;50.956;4.184;2022-10-31T19:10:22;9.88;;;4.68;;
14550;SDS011;7362;50.956;4.184;2022-10-31T19:12:50;9.85;;;4.38;;
14550;SDS011;7362;50.956;4.184;2022-10-31T19:15:15;7.97;;;4.28;;
14550;SDS011;7362;50.956;4.184;2022-10-31T19:17:42;8.60;;;4.60;;
14550;SDS011;7362;50.956;4.184;2022-10-31T19:20:11;8.90;;;4.43;;
14550;SDS011;7362;50.956;4.184;2022-10-31T19:22:39;9.60;;;4.60;;
14550;SDS011;7362;50.956;4.184;2022-10-31T19:25:04;7.15;;;4.30;;
14550;SDS011;7362;50.956;4.184;2022-10-31T19:27:31;8.63;;;4.88;;
14550;SDS011;7362;50.956;4.184;2022-10-31T19:29:57;9.43;;;4.72;;